Time;durP1;ratioP1;P1;durP2;ratioP2;P2;SDS_P1;SDS_P2;PMS_P1;PMS_P2;Temp;Humidity;BMP_temperature;BMP_pressure;BME280_temperature;BME280_humidity;BME280_pressure;Samples;Min_cycle;Max_cycle;Signal;HPM_P1;HPM_P2
2023/07/11 00:00:34;;;;;;;5.40;2.97;;;;;;;20.97;65.30;101466.28;5301156;28;20066;-73
2023/07/11 00:03:05;;;;;;;6.40;3.50;;;;;;;20.93;65.67;101464.72;5300409;28;20031;-73
2023/07/11 00:05:37;;;;;;;5.00;3.00;;;;;;;20.87;66.21;101459.69;5301256;28;20054;-73
2023/07/11 00:08:08;;;;;;;6.40;3.10;;;;;;;20.87;65.47;101459.69;5301188;28;20027;-73
2023/07/11 00:10:41;;;;;;;9.57;3.08;;;;;;;20.66;65.93;101459.72;5300962;28;20063;-72
2023/07/11 00:13:12;;;;;;;5.43;3.00;;;;;;;20.52;66.50;101457.63;5300804;28;20119;-73
2023/07/11 00:15:44;;;;;;;6.67;3.30;;;;;;;20.63;67.42;101445.72;5301115;28;20120;-72
2023/07/11 00:18:15;;;;;;;6.73;3.03;;;;;;;20.51;67.72;101444.44;5300904;28;20036;-71
2023/07/11 00:20:46;;;;;;;5.20;2.60;;;;;;;20.51;67.93;101445.34;5300777;28;20050;-72
2023/07/11 00:23:18;;;;;;;4.83;2.40;;;;;;;20.58;67.92;101441.47;5300739;28;20036;-72
2023/07/11 00:25:49;;;;;;;5.50;3.13;;;;;;;20.42;67.81;101451.03;5301025;28;20387;-73
2023/07/11 00:28:21;;;;;;;5.63;2.60;;;;;;;20.37;68.88;101439.78;5300793;28;20039;-72
2023/07/11 00:30:53;;;;;;;7.50;2.95;;;;;;;20.33;69.38;101438.19;5300934;28;20039;-72
2023/07/11 00:33:24;;;;;;;5.00;2.60;;;;;;;20.18;68.90;101440.56;5300750;28;20038;-73
2023/07/11 00:35:56;;;;;;;5.70;2.90;;;;;;;20.27;68.73;101434.03;5299261;28;20157;-72
2023/07/11 00:38:27;;;;;;;7.43;2.80;;;;;;;20.21;69.30;101442.22;5300611;28;20368;-72
2023/07/11 00:40:58;;;;;;;4.93;2.70;;;;;;;20.16;69.49;101433.63;5300624;28;20055;-72
2023/07/11 00:43:30;;;;;;;13.17;4.17;;;;;;;20.14;70.26;101430.16;5300119;28;20032;-71
2023/07/11 00:46:03;;;;;;;6.80;3.60;;;;;;;19.96;70.15;101434.44;5300502;28;20032;-72
2023/07/11 00:48:38;;;;;;;4.68;2.38;;;;;;;20.03;70.94;101434.13;5289678;28;20054;-73
2023/07/11 00:51:14;;;;;;;6.97;3.00;;;;;;;19.83;71.14;101426.16;5286427;28;20039;-72
2023/07/11 00:53:46;;;;;;;7.50;2.85;;;;;;;19.81;71.16;101428.03;5286241;28;20040;-73
2023/07/11 00:56:21;;;;;;;;;;;;;;;20.14;68.00;101436.34;5286737;28;20028;-73
2023/07/11 00:58:54;;;;;;;5.45;2.83;;;;;;;19.67;71.65;101437.34;5286124;28;20409;-73
2023/07/11 01:01:26;;;;;;;5.32;3.00;;;;;;;19.66;71.73;101440.06;5286090;28;20040;-72
2023/07/11 01:03:58;;;;;;;6.63;3.50;;;;;;;19.67;72.04;101447.94;5286087;28;20029;-73
2023/07/11 01:06:30;;;;;;;7.45;3.45;;;;;;;19.62;72.62;101444.59;5285990;28;20029;-73
2023/07/11 01:09:04;;;;;;;8.52;4.20;;;;;;;19.54;72.81;101448.47;5286165;28;20115;-71
2023/07/11 01:11:57;;;;;;;6.05;3.13;;;;;;;19.52;72.80;101445.88;5285835;28;20032;-72
2023/07/11 01:14:29;;;;;;;8.85;3.22;;;;;;;19.38;72.95;101441.13;5285420;28;20024;-71
2023/07/11 01:17:01;;;;;;;6.63;3.47;;;;;;;19.44;73.53;101448.84;5285741;28;20037;-72
2023/07/11 01:19:32;;;;;;;6.53;3.07;;;;;;;19.38;73.65;101442.94;5285760;28;20057;-72
2023/07/11 01:22:04;;;;;;;7.90;2.90;;;;;;;19.48;74.14;101439.00;5285760;28;20385;-72
2023/07/11 01:24:35;;;;;;;8.47;3.17;;;;;;;19.41;74.62;101440.16;5285658;28;20067;-72
2023/07/11 01:27:07;;;;;;;10.60;3.80;;;;;;;19.26;74.49;101431.91;5285606;28;20037;-72
2023/07/11 01:29:38;;;;;;;9.67;3.53;;;;;;;19.23;74.30;101428.53;5285909;28;20028;-71
2023/07/11 01:32:10;;;;;;;7.50;3.33;;;;;;;19.09;74.70;101426.41;5285593;28;20275;-71
2023/07/11 01:34:41;;;;;;;6.63;3.00;;;;;;;19.11;75.22;101428.09;5284014;28;20419;-72
2023/07/11 01:37:12;;;;;;;6.83;3.03;;;;;;;18.91;75.46;101427.97;5285066;28;20059;-73
2023/07/11 01:39:44;;;;;;;9.73;3.23;;;;;;;18.93;75.80;101419.09;5285330;28;20511;-73
2023/07/11 01:42:16;;;;;;;9.37;3.53;;;;;;;18.93;76.16;101411.16;5285279;28;20120;-72
2023/07/11 01:44:48;;;;;;;5.78;3.53;;;;;;;18.81;75.93;101408.94;5284849;28;20020;-72
2023/07/11 01:47:20;;;;;;;6.95;3.20;;;;;;;18.76;76.24;101401.19;5285224;28;20037;-71
2023/07/11 01:49:51;;;;;;;10.37;3.53;;;;;;;18.74;76.56;101400.38;5284920;28;20040;-72
2023/07/11 01:52:23;;;;;;;8.23;3.47;;;;;;;18.71;76.50;101404.94;5283981;28;20031;-72
2023/07/11 01:54:55;;;;;;;7.60;3.72;;;;;;;18.69;76.76;101402.34;5285066;28;20289;-72
2023/07/11 01:57:26;;;;;;;10.20;3.97;;;;;;;18.75;77.89;101399.44;5285075;28;20036;-72
2023/07/11 01:59:57;;;;;;;7.00;3.20;;;;;;;18.61;77.94;101395.59;5282760;28;20510;-72
2023/07/11 02:02:29;;;;;;;7.03;3.30;;;;;;;18.57;77.45;101394.84;5284988;28;20028;-72
2023/07/11 02:05:00;;;;;;;7.30;3.40;;;;;;;18.56;78.22;101396.66;5283680;28;20060;-73
2023/07/11 02:07:32;;;;;;;6.37;3.23;;;;;;;18.34;78.46;101387.78;5285035;28;20108;-72
2023/07/11 02:10:03;;;;;;;9.20;3.67;;;;;;;18.40;78.87;101387.53;5284813;28;20074;-72
2023/07/11 02:12:35;;;;;;;4.78;2.90;;;;;;;18.39;78.90;101380.56;5284968;28;20033;-72
2023/07/11 02:15:07;;;;;;;7.07;3.83;;;;;;;18.46;79.61;101379.41;5283086;28;20090;-72
2023/07/11 02:17:38;;;;;;;;;;;;;;;18.68;76.51;101382.13;5284989;28;20078;-72
2023/07/11 02:20:10;;;;;;;6.73;3.07;;;;;;;18.35;79.02;101377.16;5284626;28;19916;-71
2023/07/11 02:22:42;;;;;;;10.48;4.13;;;;;;;18.34;79.17;101370.16;5284781;28;20033;-72
2023/07/11 02:25:14;;;;;;;8.80;4.00;;;;;;;18.29;79.56;101369.47;5284522;28;20028;-73
2023/07/11 02:27:45;;;;;;;10.13;3.90;;;;;;;18.27;80.07;101358.09;5284155;28;20115;-73
2023/07/11 02:30:17;;;;;;;7.97;3.73;;;;;;;18.29;80.11;101352.75;5284415;28;20407;-72
2023/07/11 02:32:48;;;;;;;6.87;3.87;;;;;;;18.17;79.75;101359.34;5284052;28;20051;-73
2023/07/11 02:35:19;;;;;;;8.73;4.37;;;;;;;18.33;80.76;101351.75;5284146;28;20169;-72
2023/07/11 02:37:51;;;;;;;6.40;3.47;;;;;;;18.33;80.96;101351.75;5284281;28;20036;-72
2023/07/11 02:40:23;;;;;;;10.82;4.25;;;;;;;18.26;81.09;101350.22;5284184;28;20040;-72
2023/07/11 02:42:54;;;;;;;10.70;4.43;;;;;;;18.28;80.91;101343.13;5283721;28;20112;-73
2023/07/11 02:45:25;;;;;;;8.20;3.30;;;;;;;18.20;80.97;101338.97;5284113;28;20075;-73
2023/07/11 02:47:57;;;;;;;8.70;3.70;;;;;;;18.25;81.47;101344.09;5284760;28;20028;-70
2023/07/11 02:50:28;;;;;;;9.53;3.50;;;;;;;18.21;81.51;101335.44;5285999;28;20033;-72
2023/07/11 02:53:00;;;;;;;7.23;3.37;;;;;;;18.08;81.79;101320.97;5284597;28;20435;-71
2023/07/11 02:55:31;;;;;;;5.93;3.27;;;;;;;18.09;81.69;101329.72;5284122;28;20032;-72
2023/07/11 02:58:03;;;;;;;7.65;3.55;;;;;;;17.99;82.28;101326.56;5283993;28;20468;-72
2023/07/11 03:00:35;;;;;;;7.80;3.40;;;;;;;17.99;82.64;101323.91;5283569;28;20491;-72
2023/07/11 03:03:07;;;;;;;8.73;3.63;;;;;;;17.95;82.99;101323.19;5299379;28;20032;-73
2023/07/11 03:05:43;;;;;;;7.47;3.43;;;;;;;17.82;83.64;101316.53;5283484;28;20112;-73
2023/07/11 03:08:16;;;;;;;9.25;3.80;;;;;;;17.76;84.10;101315.00;5283644;28;20025;-72
2023/07/11 03:10:48;;;;;;;7.93;3.80;;;;;;;17.84;84.35;101310.31;5283470;28;20036;-73
2023/07/11 03:13:19;;;;;;;9.00;3.53;;;;;;;17.83;84.74;101308.59;5282967;28;20468;-73
2023/07/11 03:15:51;;;;;;;8.50;3.57;;;;;;;17.63;84.17;101297.88;5283487;28;20290;-72
2023/07/11 03:18:22;;;;;;;7.83;4.00;;;;;;;17.67;84.40;101297.69;5283570;28;20032;-71
2023/07/11 03:20:57;;;;;;;8.43;4.00;;;;;;;17.71;85.14;101295.84;5283549;28;20776;-72
2023/07/11 03:23:30;;;;;;;4.15;3.00;;;;;;;17.76;85.13;101293.03;5283511;28;20031;-72
2023/07/11 03:26:01;;;;;;;9.45;3.85;;;;;;;17.79;84.60;101299.06;5283709;28;20040;-72
2023/07/11 03:28:33;;;;;;;8.07;4.05;;;;;;;17.79;84.54;101291.16;5283576;28;20024;-73
2023/07/11 03:31:04;;;;;;;5.77;4.10;;;;;;;17.88;84.46;101291.78;5283453;28;20044;-72
2023/07/11 03:33:36;;;;;;;6.80;3.80;;;;;;;17.87;84.12;101288.28;5283410;28;20117;-72
2023/07/11 03:36:07;;;;;;;6.90;3.83;;;;;;;17.83;83.89;101281.38;5283003;28;20056;-72
2023/07/11 03:38:39;;;;;;;5.50;3.83;;;;;;;17.83;84.53;101284.84;5283475;28;20043;-72
2023/07/11 03:41:10;;;;;;;6.53;4.03;;;;;;;17.82;84.33;101283.16;5283426;28;20499;-72
2023/07/11 03:43:41;;;;;;;7.00;3.90;;;;;;;17.81;84.41;101288.47;5282945;28;20730;-72
2023/07/11 03:46:13;;;;;;;7.07;4.10;;;;;;;17.77;84.11;101292.97;5283245;28;20115;-73
2023/07/11 03:48:44;;;;;;;6.23;3.67;;;;;;;17.79;83.92;101288.53;5283501;28;20040;-72
2023/07/11 03:51:15;;;;;;;11.73;4.17;;;;;;;17.77;83.98;101282.44;5282959;28;20047;-72
2023/07/11 03:53:47;;;;;;;12.43;4.53;;;;;;;17.78;83.07;101285.94;5283379;28;20107;-72
2023/07/11 03:56:18;;;;;;;6.90;4.30;;;;;;;17.86;83.24;101283.91;5283248;28;20514;-72
2023/07/11 03:58:50;;;;;;;11.10;4.23;;;;;;;17.86;82.05;101281.25;5283314;28;20065;-72
2023/07/11 04:01:21;;;;;;;6.50;4.00;;;;;;;17.88;82.08;101282.09;5282920;28;20483;-72
2023/07/11 04:03:53;;;;;;;5.90;3.90;;;;;;;17.91;83.23;101273.22;5283056;28;20044;-72
2023/07/11 04:06:24;;;;;;;7.97;3.83;;;;;;;17.95;82.11;101280.09;5283190;28;20036;-72
2023/07/11 04:08:55;;;;;;;5.57;3.77;;;;;;;17.92;81.57;101274.91;5282759;28;20032;-72
2023/07/11 04:11:27;;;;;;;11.07;3.60;;;;;;;17.97;81.61;101267.72;5282840;28;20037;-71
2023/07/11 04:13:58;;;;;;;8.33;3.40;;;;;;;17.95;81.27;101269.53;5282753;28;20364;-72
2023/07/11 04:16:29;;;;;;;10.00;3.80;;;;;;;18.00;81.01;101272.88;5282934;28;20081;-72
2023/07/11 04:19:01;;;;;;;10.00;3.80;;;;;;;18.03;80.92;101264.84;5281917;28;20036;-73
2023/07/11 04:21:32;;;;;;;8.57;4.10;;;;;;;18.03;80.57;101264.84;5282993;28;20079;-73
2023/07/11 04:24:04;;;;;;;8.03;3.67;;;;;;;18.11;80.94;101259.28;5285627;28;20487;-72
2023/07/11 04:26:35;;;;;;;9.43;4.07;;;;;;;18.15;81.41;101260.91;5286911;28;20036;-72
2023/07/11 04:29:07;;;;;;;7.73;3.87;;;;;;;18.18;80.04;101251.09;5286815;28;20472;-71
2023/07/11 04:31:38;;;;;;;6.03;3.83;;;;;;;18.18;79.16;101255.53;5286689;28;20081;-71
2023/07/11 04:34:10;;;;;;;10.40;4.33;;;;;;;18.18;81.62;101259.03;5286624;28;20032;-72
2023/07/11 04:36:41;;;;;;;14.43;5.17;;;;;;;18.28;79.24;101246.34;5286401;28;20364;-72
2023/07/11 04:39:12;;;;;;;6.63;3.30;;;;;;;18.23;79.59;101245.66;5286612;28;20067;-72
2023/07/11 04:41:44;;;;;;;10.57;4.37;;;;;;;18.27;79.01;101246.41;5286270;28;20032;-72
2023/07/11 04:44:15;;;;;;;9.53;3.93;;;;;;;18.27;78.77;101244.59;5285813;28;20032;-72
2023/07/11 04:46:47;;;;;;;15.10;4.05;;;;;;;18.36;78.68;101246.06;5286101;28;20032;-72
2023/07/11 04:49:18;;;;;;;11.20;4.90;;;;;;;18.35;79.05;101241.69;5286389;28;20035;-72
2023/07/11 04:51:50;;;;;;;9.17;3.37;;;;;;;18.40;77.54;101242.38;5285730;28;20047;-72
2023/07/11 04:54:21;;;;;;;6.95;3.58;;;;;;;18.41;77.47;101244.09;5286098;28;20040;-72
2023/07/11 04:56:58;;;;;;;7.97;3.47;;;;;;;18.46;77.81;101238.66;5286082;28;20036;-71
2023/07/11 04:59:29;;;;;;;7.68;3.38;;;;;;;18.53;77.00;101219.88;5286098;28;20085;-72
2023/07/11 05:02:00;;;;;;;7.40;3.57;;;;;;;18.60;76.01;101231.06;5286212;28;20033;-72
2023/07/11 05:04:32;;;;;;;7.80;3.63;;;;;;;18.71;75.49;101234.13;5286175;28;20056;-72
2023/07/11 05:07:04;;;;;;;13.13;3.70;;;;;;;18.72;76.19;101225.28;5286190;28;20073;-72
2023/07/11 05:09:38;;;;;;;6.47;3.38;;;;;;;18.83;74.69;101224.00;5285670;28;20514;-72
2023/07/11 05:12:10;;;;;;;10.82;3.42;;;;;;;18.82;74.96;101214.34;5285960;28;20021;-72
2023/07/11 05:14:41;;;;;;;14.70;3.15;;;;;;;18.90;75.08;101214.91;5285575;28;20074;-71
2023/07/11 05:17:13;;;;;;;12.77;4.17;;;;;;;18.99;73.93;101209.25;5285818;28;20115;-71
2023/07/11 05:19:44;;;;;;;6.90;3.40;;;;;;;19.08;73.25;101210.69;5285550;28;20032;-72
2023/07/11 05:22:16;;;;;;;9.10;3.50;;;;;;;19.10;72.93;101209.69;5285751;28;20426;-71
2023/07/11 05:24:47;;;;;;;10.63;3.77;;;;;;;19.20;72.85;101206.66;5285641;28;20064;-71
2023/07/11 05:27:19;;;;;;;8.90;3.53;;;;;;;19.27;72.48;101206.34;5285461;28;20063;-71
2023/07/11 05:29:50;;;;;;;13.17;3.53;;;;;;;19.37;70.69;101201.50;5285738;28;20031;-71
2023/07/11 05:32:22;;;;;;;10.73;3.47;;;;;;;19.49;70.16;101208.03;5285328;28;20028;-71
2023/07/11 05:34:53;;;;;;;7.03;3.23;;;;;;;19.55;70.02;101202.50;5285471;28;20031;-73
2023/07/11 05:37:25;;;;;;;15.20;3.83;;;;;;;19.62;71.38;101197.78;5285509;28;20310;-72
2023/07/11 05:39:58;;;;;;;7.30;3.80;;;;;;;19.68;69.61;101194.88;5284126;28;20060;-72
2023/07/11 05:42:29;;;;;;;;;;;;;;;19.84;69.48;101197.72;5285532;28;20079;-72
2023/07/11 05:45:00;;;;;;;10.52;2.90;;;;;;;19.84;68.27;101197.72;5284592;28;20379;-72
2023/07/11 05:47:32;;;;;;;6.67;2.70;;;;;;;19.88;67.95;101191.34;5285317;28;20445;-74
2023/07/11 05:50:03;;;;;;;8.50;3.67;;;;;;;19.91;67.54;101195.66;5284922;28;20537;-72
2023/07/11 05:52:35;;;;;;;8.25;4.47;;;;;;;19.94;69.16;101191.09;5285098;28;20462;-73
2023/07/11 05:55:06;;;;;;;8.63;3.93;;;;;;;20.02;68.24;101191.59;5285302;28;20038;-71
2023/07/11 05:57:38;;;;;;;9.38;2.92;;;;;;;20.08;69.68;101187.81;5284939;28;20075;-71
2023/07/11 06:00:10;;;;;;;6.27;2.77;;;;;;;20.18;68.52;101182.94;5284725;28;20111;-71
2023/07/11 06:02:41;;;;;;;11.82;3.60;;;;;;;20.20;68.73;101181.09;5284884;28;20028;-72
2023/07/11 06:05:13;;;;;;;11.03;3.73;;;;;;;20.30;67.27;101171.78;5284882;28;20035;-72
2023/07/11 06:07:45;;;;;;;13.23;3.20;;;;;;;20.38;67.53;101177.59;5284941;28;20036;-71
2023/07/11 06:10:17;;;;;;;9.88;3.50;;;;;;;20.39;68.27;101171.34;5284885;28;20348;-72
2023/07/11 06:12:48;;;;;;;9.50;3.53;;;;;;;20.48;67.43;101170.06;5283619;28;20020;-71
2023/07/11 06:15:19;;;;;;;13.50;4.40;;;;;;;20.55;67.03;101171.47;5284342;28;20032;-71
2023/07/11 06:17:51;;;;;;;11.57;3.27;;;;;;;20.58;67.42;101168.66;5284642;28;20488;-71
2023/07/11 06:20:23;;;;;;;10.05;3.35;;;;;;;20.72;65.28;101173.34;5284589;28;20047;-72
2023/07/11 06:22:54;;;;;;;8.43;3.40;;;;;;;20.74;67.70;101171.44;5284626;28;20104;-75
2023/07/11 06:25:26;;;;;;;11.07;3.60;;;;;;;20.80;67.41;101178.25;5284103;28;20065;-72
2023/07/11 06:27:58;;;;;;;7.72;3.47;;;;;;;20.89;65.34;101169.81;5284456;28;20422;-72
2023/07/11 06:30:29;;;;;;;9.37;2.83;;;;;;;20.96;65.98;101173.03;5284501;28;20074;-72
2023/07/11 06:33:00;;;;;;;8.23;3.30;;;;;;;21.07;65.18;101168.03;5284100;28;20041;-71
2023/07/11 06:35:32;;;;;;;6.43;3.07;;;;;;;21.08;64.59;101166.25;5283981;28;20478;-72
2023/07/11 06:38:03;;;;;;;10.67;3.00;;;;;;;21.23;64.30;101178.72;5266266;28;20033;-71
2023/07/11 06:40:35;;;;;;;8.27;3.17;;;;;;;21.29;64.73;101173.09;5284213;28;20028;-71
2023/07/11 06:43:06;;;;;;;11.10;2.90;;;;;;;21.39;64.57;101169.97;5282624;28;20423;-72
2023/07/11 06:45:37;;;;;;;14.07;3.43;;;;;;;21.45;62.93;101174.97;5283231;28;20460;-71
2023/07/11 06:48:09;;;;;;;9.63;3.00;;;;;;;21.46;63.55;101164.28;5284103;28;20036;-71
2023/07/11 06:50:41;;;;;;;10.00;3.33;;;;;;;21.55;64.00;101170.06;5282848;28;20033;-71
2023/07/11 06:53:12;;;;;;;10.00;3.28;;;;;;;21.59;62.47;101163.66;5282798;28;20111;-72
2023/07/11 06:55:49;;;;;;;6.17;2.77;;;;;;;21.67;62.70;101164.13;5283895;28;20104;-72
2023/07/11 06:58:21;;;;;;;9.32;3.13;;;;;;;21.79;59.43;101171.41;5282668;28;20039;-72
2023/07/11 07:01:02;;;;;;;8.85;2.95;;;;;;;21.80;59.35;101167.81;5283893;28;20119;-72
2023/07/11 07:03:33;;;;;;;6.00;3.00;;;;;;;21.87;61.33;101162.19;5282721;28;20380;-72
2023/07/11 07:06:08;;;;;;;10.47;2.93;;;;;;;22.01;57.92;101170.25;5283532;28;20040;-72
2023/07/11 07:08:40;;;;;;;8.73;2.72;;;;;;;22.07;57.69;101167.25;5283738;28;20029;-72
2023/07/11 07:11:12;;;;;;;9.80;3.35;;;;;;;22.12;59.46;101161.69;5283739;28;20456;-71
2023/07/11 07:13:43;;;;;;;15.70;3.63;;;;;;;22.29;56.98;101160.75;5283011;28;20032;-72
2023/07/11 07:16:15;;;;;;;11.57;3.30;;;;;;;22.42;57.13;101167.13;5283559;28;20597;-70
2023/07/11 07:18:46;;;;;;;14.53;3.20;;;;;;;22.46;57.54;101162.47;5282370;28;20039;-71
2023/07/11 07:21:17;;;;;;;9.10;2.73;;;;;;;22.51;55.97;101161.28;5283487;28;20050;-70
2023/07/11 07:23:49;;;;;;;8.67;3.50;;;;;;;22.63;55.27;101157.06;5283515;28;20086;-72
2023/07/11 07:26:20;;;;;;;8.90;3.57;;;;;;;22.67;57.70;101161.28;5283479;28;20039;-71
2023/07/11 07:28:52;;;;;;;11.37;3.40;;;;;;;22.79;56.50;101157.03;5283578;28;20034;-71
2023/07/11 07:31:23;;;;;;;6.43;2.70;;;;;;;22.99;53.27;101153.22;5283216;28;20487;-72
2023/07/11 07:33:55;;;;;;;10.73;2.75;;;;;;;23.01;54.21;101158.44;5283281;28;20101;-71
2023/07/11 07:36:26;;;;;;;7.93;2.87;;;;;;;23.02;52.52;101155.66;5283325;28;20597;-71
2023/07/11 07:38:58;;;;;;;8.70;2.80;;;;;;;23.12;52.75;101153.38;5282115;28;20112;-73
2023/07/11 07:41:29;;;;;;;9.07;3.05;;;;;;;23.17;52.17;101148.63;5283367;28;20040;-71
2023/07/11 07:44:00;;;;;;;14.80;2.87;;;;;;;23.28;51.09;101143.53;5282810;28;20029;-72
2023/07/11 07:46:32;;;;;;;9.80;3.20;;;;;;;23.49;52.42;101143.16;5282240;28;20432;-72
2023/07/11 07:49:03;;;;;;;7.43;2.20;;;;;;;23.58;52.91;101133.75;5283395;28;20278;-73
2023/07/11 07:51:34;;;;;;;10.73;3.10;;;;;;;23.80;51.18;101136.78;5283474;28;20119;-73
2023/07/11 07:54:06;;;;;;;5.23;2.40;;;;;;;23.81;50.96;101132.28;5283156;28;20055;-73
2023/07/11 07:56:37;;;;;;;8.82;2.72;;;;;;;23.83;53.08;101127.78;5282083;28;20469;-72
2023/07/11 07:59:09;;;;;;;3.37;2.23;;;;;;;24.01;49.54;101133.75;5286635;28;20056;-73
2023/07/11 08:01:40;;;;;;;20.07;2.83;;;;;;;24.08;54.30;101128.88;5287673;28;20519;-74
2023/07/11 08:04:12;;;;;;;7.30;2.70;;;;;;;24.31;49.74;101125.59;5287089;28;20039;-73
2023/07/11 08:06:43;;;;;;;5.67;2.67;;;;;;;24.42;48.39;101126.69;5287498;28;20029;-72
2023/07/11 08:09:14;;;;;;;9.80;3.50;;;;;;;24.23;48.84;101117.25;5287103;28;20036;-74
2023/07/11 08:11:46;;;;;;;6.20;2.77;;;;;;;24.07;51.03;101119.16;5287374;28;20040;-72
2023/07/11 08:14:17;;;;;;;10.30;3.20;;;;;;;24.14;49.35;101121.34;5286971;28;20482;-72
2023/07/11 08:16:49;;;;;;;5.40;2.60;;;;;;;24.21;50.87;101117.34;5287232;28;20024;-73
2023/07/11 08:19:20;;;;;;;6.03;2.33;;;;;;;24.48;48.30;101119.13;5287128;28;20036;-74
2023/07/11 08:21:52;;;;;;;7.93;2.97;;;;;;;24.56;47.69;101116.84;5287007;28;20267;-74
2023/07/11 08:24:24;;;;;;;5.75;2.53;;;;;;;24.66;50.44;101110.91;5286994;28;20028;-74
2023/07/11 08:26:55;;;;;;;9.75;2.63;;;;;;;24.73;49.87;101123.72;5285423;28;20071;-73
2023/07/11 08:29:26;;;;;;;8.03;2.37;;;;;;;24.89;48.25;101117.34;5286939;28;20032;-73
2023/07/11 08:31:58;;;;;;;8.17;3.23;;;;;;;25.12;47.02;101126.44;5286819;28;20035;-73
2023/07/11 08:34:29;;;;;;;6.40;2.40;;;;;;;25.22;47.07;101116.00;5268763;28;20278;-72
2023/07/11 08:37:01;;;;;;;13.82;2.83;;;;;;;25.34;46.19;101120.50;5285006;28;20104;-71
2023/07/11 08:39:32;;;;;;;6.30;2.50;;;;;;;25.28;46.51;101111.09;5286330;28;20444;-72
2023/07/11 08:42:12;;;;;;;10.70;2.30;;;;;;;25.38;45.83;101113.16;5286320;28;20479;-72
2023/07/11 08:44:53;;;;;;;15.20;3.50;;;;;;;25.48;45.02;101111.53;5286031;28;20387;-75
2023/07/11 08:47:32;;;;;;;6.72;2.53;;;;;;;25.65;44.69;101111.19;5286661;28;20075;-74
2023/07/11 08:50:22;;;;;;;8.98;2.33;;;;;;;25.77;45.04;101106.78;5285484;28;20353;-72
2023/07/11 08:53:03;;;;;;;4.97;2.38;;;;;;;25.67;44.43;101105.72;5286741;28;20070;-74
2023/07/11 08:55:41;;;;;;;9.25;2.45;;;;;;;25.83;46.46;101098.31;5285067;28;20025;-74
2023/07/11 08:58:19;;;;;;;6.72;2.72;;;;;;;26.05;44.20;101109.28;5286168;28;20070;-72
2023/07/11 09:00:51;;;;;;;5.03;2.40;;;;;;;25.92;44.43;101093.28;5286105;28;20380;-73
2023/07/11 09:03:32;;;;;;;9.32;2.88;;;;;;;25.86;45.65;101097.25;5286279;28;20038;-73
2023/07/11 09:06:11;;;;;;;6.28;2.60;;;;;;;26.15;45.21;101091.63;5286292;28;20025;-72
2023/07/11 09:08:46;;;;;;;8.85;2.83;;;;;;;26.30;43.78;101103.00;5285399;28;20383;-72
2023/07/11 09:11:29;;;;;;;8.23;2.60;;;;;;;26.22;43.96;101090.19;5285935;28;20036;-72
2023/07/11 09:14:08;;;;;;;10.10;2.80;;;;;;;25.97;44.89;101088.47;5285938;28;20031;-71
2023/07/11 09:16:53;;;;;;;6.85;2.45;;;;;;;25.90;44.08;101089.88;5285665;28;20033;-72
2023/07/11 09:19:25;;;;;;;8.98;3.13;;;;;;;25.99;44.15;101084.75;5285900;28;20028;-73
2023/07/11 09:22:20;;;;;;;7.20;2.58;;;;;;;26.30;44.25;101089.63;5285973;28;20060;-73
2023/07/11 09:25:09;;;;;;;6.03;2.88;;;;;;;26.32;44.04;101103.72;5285383;28;20112;-72
2023/07/11 09:27:42;;;;;;;7.97;3.13;;;;;;;26.35;43.93;101079.44;5285734;28;20418;-72
2023/07/11 09:30:40;;;;;;;8.05;3.03;;;;;;;26.46;43.92;101070.63;5285748;28;20383;-72
2023/07/11 09:33:14;;;;;;;8.10;3.03;;;;;;;26.28;44.19;101087.06;5285316;28;20145;-72
2023/07/11 09:35:46;;;;;;;7.75;2.92;;;;;;;26.50;45.68;101077.44;5285262;28;20391;-73
2023/07/11 09:38:38;;;;;;;8.25;2.70;;;;;;;26.79;45.76;101080.63;5285555;28;20032;-72
2023/07/11 09:41:20;;;;;;;7.97;2.78;;;;;;;26.71;44.02;101077.66;5285531;28;20032;-72
2023/07/11 09:43:52;;;;;;;12.13;2.80;;;;;;;26.50;45.61;101085.47;5283763;28;20063;-71
2023/07/11 09:46:25;;;;;;;7.47;3.13;;;;;;;26.66;42.61;101085.19;5285476;28;20059;-72
2023/07/11 09:49:00;;;;;;;11.55;3.25;;;;;;;26.70;41.25;101079.50;5284221;28;20036;-74
2023/07/11 09:51:48;;;;;;;7.50;2.58;;;;;;;26.81;40.94;101091.19;5285171;28;20077;-73
2023/07/11 09:54:27;;;;;;;6.97;2.97;;;;;;;26.94;40.91;101081.25;5285271;28;20438;-74
2023/07/11 09:57:09;;;;;;;4.50;2.47;;;;;;;26.95;41.67;101069.56;5285149;28;20115;-73
2023/07/11 09:59:43;;;;;;;;;;;;;;;27.19;41.17;101065.94;5285438;28;20028;-72
2023/07/11 10:02:16;;;;;;;8.55;3.40;;;;;;;26.92;41.54;101061.81;5285051;28;19908;-73
2023/07/11 10:04:49;;;;;;;6.97;3.55;;;;;;;26.83;42.29;101065.19;5284916;28;20064;-73
2023/07/11 10:07:30;;;;;;;7.78;2.60;;;;;;;26.93;41.81;101077.75;5284810;28;20029;-72
2023/07/11 10:10:05;;;;;;;8.57;3.08;;;;;;;27.04;42.90;101060.00;5284597;28;20111;-73
2023/07/11 10:12:37;;;;;;;7.47;3.05;;;;;;;27.46;42.45;101069.13;5284819;28;20124;-73
2023/07/11 10:15:15;;;;;;;;;;;;;;;27.64;40.39;101063.28;5284718;28;20115;-73
2023/07/11 10:17:46;;;;;;;8.30;2.92;;;;;;;27.27;41.44;101063.50;5283334;28;19923;-73
2023/07/11 10:20:18;;;;;;;;;;;;;;;27.75;41.19;101049.88;5284122;28;20028;-73
2023/07/11 10:23:00;;;;;;;7.75;3.35;;;;;;;27.69;41.62;101065.59;5284444;28;19913;-72
2023/07/11 10:25:32;;;;;;;5.72;2.65;;;;;;;27.72;40.94;101062.66;5283455;28;20032;-73
2023/07/11 10:28:25;;;;;;;;;;;;;;;28.21;40.28;101056.00;5284661;28;20044;-73
2023/07/11 10:31:01;;;;;;;11.20;2.85;;;;;;;28.00;40.36;101053.28;5283185;28;19908;-73
2023/07/11 10:33:41;;;;;;;8.13;3.05;;;;;;;28.21;40.04;101050.63;5284188;28;20086;-73
2023/07/11 10:36:19;;;;;;;10.68;2.90;;;;;;;28.31;41.29;101048.88;5284145;28;20045;-72
2023/07/11 10:38:58;;;;;;;6.90;3.15;;;;;;;28.09;39.06;101030.22;5284410;28;20136;-72
2023/07/11 10:41:36;;;;;;;9.05;3.22;;;;;;;28.16;39.31;101037.63;5283957;28;20039;-73
2023/07/11 10:44:17;;;;;;;8.38;2.75;;;;;;;28.58;39.67;101039.53;5283529;28;20028;-71
2023/07/11 10:46:51;;;;;;;8.95;2.90;;;;;;;29.02;38.51;101032.13;5284122;28;20141;-72
2023/07/11 10:49:30;;;;;;;9.23;3.33;;;;;;;29.21;38.21;101031.41;5284043;28;20028;-72
2023/07/11 10:52:21;;;;;;;12.38;3.08;;;;;;;29.15;37.38;101023.03;5283989;28;20472;-71
2023/07/11 10:55:05;;;;;;;9.55;3.10;;;;;;;29.14;38.62;101027.50;5284169;28;20527;-72
2023/07/11 10:57:44;;;;;;;7.63;3.20;;;;;;;28.64;38.43;101020.22;5283555;28;20025;-71
2023/07/11 11:00:20;;;;;;;6.38;2.92;;;;;;;28.92;39.88;101025.88;5283801;28;20071;-72
2023/07/11 11:02:54;;;;;;;7.55;3.42;;;;;;;28.96;36.43;101011.19;5284027;28;20361;-71
2023/07/11 11:05:45;;;;;;;11.38;3.20;;;;;;;28.86;36.52;101015.69;5283903;28;20025;-72
2023/07/11 11:08:38;;;;;;;7.03;3.20;;;;;;;29.27;37.45;101020.13;5283504;28;20116;-73
2023/07/11 11:11:36;;;;;;;8.07;2.95;;;;;;;30.12;37.09;101009.81;5283821;28;20112;-72
2023/07/11 11:14:12;;;;;;;8.65;2.92;;;;;;;30.18;34.94;101006.56;5277923;28;20080;-72
2023/07/11 11:17:10;;;;;;;7.18;3.00;;;;;;;30.29;34.40;101004.75;5283321;28;20468;-73
2023/07/11 11:20:05;;;;;;;11.73;2.90;;;;;;;30.22;35.55;100995.53;5283804;28;20024;-73
2023/07/11 11:23:05;;;;;;;10.23;3.15;;;;;;;30.70;35.35;100990.13;5283422;28;20026;-73
2023/07/11 11:25:48;;;;;;;6.45;3.20;;;;;;;30.88;34.83;100989.31;5265364;28;20395;-73
2023/07/11 11:28:59;;;;;;;6.53;3.13;;;;;;;31.63;34.28;100983.91;5283298;28;20361;-73
2023/07/11 11:31:32;;;;;;;9.00;2.90;;;;;;;31.05;33.82;100990.44;5261793;28;20070;-73
2023/07/11 11:34:22;;;;;;;5.68;2.75;;;;;;;31.11;33.01;100981.75;5283434;28;20081;-73
2023/07/11 11:36:56;;;;;;;8.43;3.28;;;;;;;31.71;34.40;100964.28;5283501;28;20445;-73
2023/07/11 11:39:52;;;;;;;9.25;3.38;;;;;;;31.86;31.78;100986.13;5283381;28;20060;-73
2023/07/11 11:42:30;;;;;;;10.68;2.97;;;;;;;31.14;32.65;100970.69;5283503;28;20028;-72
2023/07/11 11:45:11;;;;;;;9.77;3.55;;;;;;;31.59;32.45;100969.06;5283019;28;20032;-73
2023/07/11 11:47:44;;;;;;;9.43;3.00;;;;;;;31.65;31.54;100972.97;5283530;28;20032;-72
2023/07/11 11:50:18;;;;;;;6.72;3.20;;;;;;;31.61;32.38;100964.34;5283402;28;20040;-73
2023/07/11 11:53:17;;;;;;;6.43;2.90;;;;;;;31.81;32.69;100960.50;5283312;28;20074;-72
2023/07/11 11:55:55;;;;;;;8.25;3.42;;;;;;;31.13;32.87;100955.53;5283211;28;20514;-72